createdAt,value
2023-03-06T00:01:00.000Z,7.43
2023-03-06T00:03:26.594Z,7.60
2023-03-06T00:05:57.130Z,7.82
2023-03-06T00:08:24.843Z,7.38
2023-03-06T00:10:51.340Z,6.72
2023-03-06T00:13:18.278Z,7.75
2023-03-06T00:15:46.031Z,7.35
2023-03-06T00:18:12.792Z,7.75
2023-03-06T00:20:41.248Z,7.53
2023-03-06T00:23:08.843Z,7.15
2023-03-06T00:25:35.860Z,7.22
2023-03-06T00:28:02.399Z,6.10
2023-03-06T00:30:29.115Z,7.15
2023-03-06T00:32:55.640Z,6.65
2023-03-06T00:35:22.262Z,8.60
2023-03-06T00:37:48.853Z,7.60
2023-03-06T00:40:19.614Z,7.20
2023-03-06T00:42:47.078Z,8.20
2023-03-06T00:45:14.176Z,8.75
2023-03-06T00:47:41.469Z,7.25
2023-03-06T00:50:09.294Z,6.43
2023-03-06T00:52:36.357Z,7.95
2023-03-06T00:55:03.159Z,8.40
2023-03-06T00:57:30.425Z,7.13
2023-03-06T00:59:56.950Z,9.65
2023-03-06T01:02:23.514Z,8.20
2023-03-06T01:04:50.067Z,8.15
2023-03-06T01:07:16.582Z,8.35
2023-03-06T01:09:43.148Z,9.65
2023-03-06T01:12:09.845Z,8.85
2023-03-06T01:14:36.372Z,8.68
2023-03-06T01:17:03.098Z,8.95
2023-03-06T01:19:29.577Z,10.52
2023-03-06T01:21:56.154Z,8.88
2023-03-06T01:24:22.775Z,9.85
2023-03-06T01:26:49.380Z,10.23
2023-03-06T01:29:15.860Z,9.85
2023-03-06T01:31:42.425Z,9.32
2023-03-06T01:34:09.042Z,7.80
2023-03-06T01:36:35.547Z,9.00
2023-03-06T01:39:02.093Z,9.55
2023-03-06T01:41:28.667Z,9.57
2023-03-06T01:43:55.619Z,8.60
2023-03-06T01:46:41.250Z,8.38
2023-03-06T01:49:35.114Z,9.23
2023-03-06T01:52:18.602Z,10.75
2023-03-06T01:54:51.813Z,9.32
2023-03-06T01:57:22.347Z,9.23
2023-03-06T01:59:53.800Z,10.13
2023-03-06T02:02:21.852Z,9.55
2023-03-06T02:04:48.729Z,9.20
2023-03-06T02:07:19.024Z,9.98
2023-03-06T02:12:16.082Z,8.32
2023-03-06T02:14:43.260Z,10.52
2023-03-06T02:17:12.018Z,9.25
2023-03-06T02:20:02.586Z,8.82
2023-03-06T02:22:42.495Z,9.82
2023-03-06T02:25:21.053Z,11.52
2023-03-06T02:27:48.096Z,10.48
2023-03-06T02:30:16.338Z,11.65
2023-03-06T02:32:42.873Z,11.65
2023-03-06T02:35:19.546Z,8.90
2023-03-06T02:37:46.846Z,12.05
2023-03-06T02:40:16.362Z,11.52
2023-03-06T02:42:51.213Z,12.10
2023-03-06T02:45:36.541Z,10.68
2023-03-06T02:48:03.988Z,11.10
2023-03-06T02:50:31.682Z,11.20
2023-03-06T02:52:58.780Z,11.02
2023-03-06T02:55:25.582Z,11.02
2023-03-06T02:57:52.048Z,7.72
2023-03-06T03:00:19.308Z,12.15
2023-03-06T03:02:45.951Z,11.05
2023-03-06T03:05:12.485Z,10.18
2023-03-06T03:07:38.999Z,10.05
2023-03-06T03:10:06.247Z,14.05
2023-03-06T03:12:33.203Z,10.27
2023-03-06T03:14:59.716Z,12.23
2023-03-06T03:17:26.323Z,11.75
2023-03-06T03:19:52.851Z,9.98
2023-03-06T03:22:19.787Z,12.65
2023-03-06T03:24:46.836Z,8.43
2023-03-06T03:27:13.995Z,12.10
2023-03-06T03:29:41.115Z,11.82
2023-03-06T03:32:08.077Z,12.52
2023-03-06T03:34:34.788Z,12.70
2023-03-06T03:37:01.262Z,13.55
2023-03-06T03:39:27.800Z,11.65
2023-03-06T03:41:54.493Z,11.35
2023-03-06T03:44:21.088Z,12.68
2023-03-06T03:46:47.710Z,14.07
2023-03-06T03:49:14.697Z,13.07
2023-03-06T03:51:41.248Z,12.82
2023-03-06T03:54:07.792Z,13.30
2023-03-06T03:56:34.543Z,10.43
2023-03-06T03:59:01.150Z,12.68
2023-03-06T04:01:27.753Z,12.95
2023-03-06T04:03:54.261Z,12.38
2023-03-06T04:06:20.763Z,11.43
2023-03-06T04:08:47.484Z,12.40
2023-03-06T04:11:13.971Z,12.38
2023-03-06T04:13:40.438Z,12.20
2023-03-06T04:16:07.461Z,12.18
2023-03-06T04:18:34.078Z,13.32
2023-03-06T04:21:00.674Z,12.63
2023-03-06T04:23:27.219Z,12.85
2023-03-06T04:25:53.801Z,11.95
2023-03-06T04:28:20.620Z,12.20
2023-03-06T04:30:47.277Z,13.00
2023-03-06T04:33:13.754Z,11.95
2023-03-06T04:35:40.373Z,13.25
2023-03-06T04:38:07.326Z,12.85
2023-03-06T04:40:35.556Z,12.90
2023-03-06T04:43:03.242Z,13.45
2023-03-06T04:45:31.347Z,13.05
2023-03-06T04:47:58.642Z,13.50
2023-03-06T04:50:26.588Z,14.90
2023-03-06T04:52:53.202Z,13.48
2023-03-06T04:55:19.947Z,12.60
2023-03-06T04:57:47.586Z,12.45
2023-03-06T05:00:17.450Z,14.07
2023-03-06T05:02:44.838Z,13.95
2023-03-06T05:05:12.166Z,15.43
2023-03-06T05:07:39.445Z,13.48
2023-03-06T05:10:06.644Z,13.18
2023-03-06T05:12:36.121Z,13.73
2023-03-06T05:15:03.976Z,14.13
2023-03-06T05:17:30.492Z,12.18
2023-03-06T05:19:56.945Z,14.75
2023-03-06T05:22:23.511Z,13.80
2023-03-06T05:24:50.105Z,13.50
2023-03-06T05:27:17.003Z,12.95
2023-03-06T05:29:43.519Z,13.45
2023-03-06T05:32:10.292Z,12.68
2023-03-06T05:34:36.915Z,13.45
2023-03-06T05:37:03.458Z,11.63
2023-03-06T05:39:30.118Z,13.65
2023-03-06T05:41:56.651Z,14.13
2023-03-06T05:44:23.203Z,15.13
2023-03-06T05:46:50.615Z,13.55
2023-03-06T05:49:17.330Z,12.82
2023-03-06T05:51:43.854Z,13.85
2023-03-06T05:54:10.347Z,13.77
2023-03-06T05:56:36.849Z,14.43
2023-03-06T05:59:03.366Z,14.77
2023-03-06T06:01:29.874Z,10.52
2023-03-06T06:03:56.390Z,12.57
2023-03-06T06:06:22.862Z,11.57
2023-03-06T06:08:49.379Z,13.70
2023-03-06T06:11:15.887Z,12.23
2023-03-06T06:13:42.411Z,12.27
2023-03-06T06:16:14.513Z,12.10
2023-03-06T06:18:41.588Z,13.18
2023-03-06T06:21:12.008Z,12.75
2023-03-06T06:23:38.558Z,13.13
2023-03-06T06:26:07.433Z,10.35
2023-03-06T06:28:34.002Z,14.48
2023-03-06T06:31:00.819Z,12.30
2023-03-06T06:33:27.410Z,15.10
2023-03-06T06:35:53.996Z,12.38
2023-03-06T06:38:20.506Z,12.80
2023-03-06T06:41:04.892Z,9.60
2023-03-06T06:43:33.479Z,11.55
2023-03-06T06:46:19.908Z,12.82
2023-03-06T06:48:50.355Z,11.98
2023-03-06T06:51:17.239Z,12.75
2023-03-06T06:53:43.774Z,12.30
2023-03-06T06:56:10.779Z,13.70
2023-03-06T06:58:37.336Z,10.95
2023-03-06T07:01:08.796Z,12.57
2023-03-06T07:03:35.443Z,13.85
2023-03-06T07:06:02.086Z,11.40
2023-03-06T07:08:28.932Z,12.48
2023-03-06T07:10:55.499Z,14.00
2023-03-06T07:13:22.041Z,13.27
2023-03-06T07:15:48.576Z,11.48
2023-03-06T07:18:15.049Z,13.45
2023-03-06T07:20:41.553Z,12.48
2023-03-06T07:23:11.780Z,12.10
2023-03-06T07:25:38.257Z,12.82
2023-03-06T07:28:05.235Z,12.77
2023-03-06T07:30:31.874Z,11.05
2023-03-06T07:32:59.490Z,13.23
2023-03-06T07:35:26.749Z,10.38
2023-03-06T07:37:53.840Z,12.38
2023-03-06T07:40:20.790Z,12.15
2023-03-06T07:42:47.392Z,12.15
2023-03-06T07:45:13.913Z,14.02
2023-03-06T07:47:40.638Z,12.07
2023-03-06T07:50:07.844Z,12.85
2023-03-06T07:52:34.691Z,14.43
2023-03-06T07:55:01.496Z,13.38
2023-03-06T07:57:28.013Z,12.95
2023-03-06T07:59:54.640Z,12.10
2023-03-06T08:02:21.191Z,11.63
2023-03-06T08:04:54.843Z,13.75
2023-03-06T08:07:22.249Z,12.43
2023-03-06T08:09:49.393Z,12.30
2023-03-06T08:12:16.746Z,12.85
2023-03-06T08:14:43.283Z,12.88
2023-03-06T08:17:09.802Z,13.60
2023-03-06T08:19:36.365Z,13.85
2023-03-06T08:22:04.902Z,12.32
2023-03-06T08:24:32.116Z,11.70
2023-03-06T08:26:58.732Z,12.10
2023-03-06T08:29:25.218Z,11.60
2023-03-06T08:31:51.779Z,10.98
2023-03-06T08:34:23.270Z,10.95
2023-03-06T08:36:50.029Z,12.05
2023-03-06T08:39:16.754Z,11.40
2023-03-06T08:41:43.315Z,11.68
2023-03-06T08:44:10.687Z,12.57
2023-03-06T08:46:37.478Z,9.65
2023-03-06T08:49:04.168Z,11.80
2023-03-06T08:51:30.670Z,13.63
2023-03-06T08:53:57.606Z,11.65
2023-03-06T08:56:30.179Z,10.82
2023-03-06T08:58:58.261Z,12.07
2023-03-06T09:01:29.029Z,13.35
2023-03-06T09:03:57.689Z,13.75
2023-03-06T09:06:25.815Z,10.90
2023-03-06T09:08:53.044Z,11.15
2023-03-06T09:11:21.021Z,12.10
2023-03-06T09:13:47.555Z,11.43
2023-03-06T09:16:14.135Z,11.98
2023-03-06T09:18:40.841Z,11.75
2023-03-06T09:21:08.875Z,10.15
2023-03-06T09:23:36.437Z,12.30
2023-03-06T09:26:03.463Z,12.07
2023-03-06T09:28:29.985Z,10.95
2023-03-06T09:30:56.536Z,11.35
2023-03-06T09:33:23.456Z,9.98
2023-03-06T09:35:53.207Z,12.00
2023-03-06T09:38:21.832Z,12.18
2023-03-06T09:40:54.052Z,12.93
2023-03-06T09:43:29.604Z,12.57
2023-03-06T09:45:57.977Z,10.65
2023-03-06T09:49:06.082Z,11.52
2023-03-06T09:51:38.789Z,9.80
2023-03-06T09:54:13.614Z,11.68
2023-03-06T09:56:46.972Z,12.02
2023-03-06T09:59:19.659Z,11.45
2023-03-06T10:02:01.148Z,11.25
2023-03-06T10:04:32.066Z,11.20
2023-03-06T10:07:15.430Z,11.15
2023-03-06T10:09:57.252Z,10.98
2023-03-06T10:12:26.840Z,10.98
2023-03-06T10:15:19.258Z,10.85
2023-03-06T10:17:45.956Z,8.95
2023-03-06T10:20:22.330Z,11.65
2023-03-06T10:23:01.279Z,10.73
2023-03-06T10:25:43.793Z,7.40
2023-03-06T10:28:17.238Z,7.75
2023-03-06T10:31:10.662Z,10.70
2023-03-06T10:33:52.523Z,8.73
2023-03-06T10:36:20.539Z,11.23
2023-03-06T10:38:48.161Z,10.38
2023-03-06T10:41:14.586Z,8.55
2023-03-06T10:43:44.146Z,9.23
2023-03-06T10:46:13.752Z,9.65
2023-03-06T10:48:42.483Z,7.78
2023-03-06T10:51:17.759Z,7.97
2023-03-06T10:54:14.823Z,8.43
2023-03-06T10:56:43.197Z,7.30
2023-03-06T10:59:15.698Z,8.18
2023-03-06T11:01:45.138Z,10.10
2023-03-06T11:04:23.097Z,7.63
2023-03-06T11:07:04.814Z,9.00
2023-03-06T11:09:31.526Z,8.07
2023-03-06T11:12:23.775Z,7.75
2023-03-06T11:15:08.660Z,7.32
2023-03-06T11:17:56.898Z,7.55
2023-03-06T11:20:33.579Z,8.48
2023-03-06T11:23:20.693Z,7.90
2023-03-06T11:26:26.597Z,5.63
2023-03-06T11:29:05.210Z,8.27
2023-03-06T11:31:37.389Z,7.10
2023-03-06T11:34:41.825Z,7.57
2023-03-06T11:37:11.378Z,6.80
2023-03-06T11:39:45.841Z,7.95
2023-03-06T11:42:50.740Z,8.20
2023-03-06T11:45:32.846Z,7.20
2023-03-06T11:48:03.408Z,6.07
2023-03-06T11:51:06.595Z,6.97
2023-03-06T11:53:39.510Z,7.32
2023-03-06T11:56:44.695Z,7.72
2023-03-06T11:59:32.564Z,8.65
2023-03-06T12:05:06.161Z,6.70
2023-03-06T12:07:47.671Z,4.93
2023-03-06T12:10:30.903Z,6.97
2023-03-06T12:13:16.458Z,5.63
2023-03-06T12:15:48.810Z,6.28
2023-03-06T12:18:40.249Z,5.88
2023-03-06T12:21:20.866Z,5.68
2023-03-06T12:24:07.282Z,7.38
2023-03-06T12:26:44.839Z,6.90
2023-03-06T12:29:32.446Z,7.03
2023-03-06T12:32:07.998Z,7.45
2023-03-06T12:35:08.678Z,6.32
2023-03-06T12:37:47.482Z,6.90
2023-03-06T12:40:19.714Z,6.85
2023-03-06T12:43:27.100Z,6.00
2023-03-06T12:46:15.446Z,5.50
2023-03-06T12:48:45.352Z,6.20
2023-03-06T12:51:19.116Z,5.05
2023-03-06T12:53:46.144Z,6.20
2023-03-06T12:56:16.270Z,6.07
2023-03-06T13:01:16.446Z,5.47
2023-03-06T13:04:13.936Z,5.68
2023-03-06T13:07:07.558Z,7.68
2023-03-06T13:09:42.662Z,7.32
2023-03-06T13:12:48.041Z,6.82
2023-03-06T13:15:43.112Z,6.72
2023-03-06T13:18:21.709Z,6.45
2023-03-06T13:20:49.727Z,7.70
2023-03-06T13:23:34.394Z,7.82
2023-03-06T13:26:04.928Z,7.95
2023-03-06T13:28:48.587Z,8.00
2023-03-06T13:31:28.072Z,8.05
2023-03-06T13:34:00.848Z,8.10
2023-03-06T13:36:34.344Z,7.80
2023-03-06T13:39:11.432Z,7.85
2023-03-06T13:41:56.282Z,6.78
2023-03-06T13:44:26.824Z,5.63
2023-03-06T13:46:57.863Z,7.38
2023-03-06T13:49:25.169Z,6.55
2023-03-06T13:51:51.612Z,8.23
2023-03-06T13:54:29.702Z,7.30
2023-03-06T13:57:20.545Z,7.68
2023-03-06T14:00:14.780Z,8.73
2023-03-06T14:03:15.165Z,8.68
2023-03-06T14:05:46.776Z,7.72
2023-03-06T14:08:30.221Z,9.93
2023-03-06T14:11:21.529Z,9.18
2023-03-06T14:13:55.399Z,7.68
2023-03-06T14:16:32.711Z,8.43
2023-03-06T14:19:04.044Z,7.68
2023-03-06T14:21:37.537Z,8.60
2023-03-06T14:24:05.586Z,8.80
2023-03-06T14:26:34.248Z,7.38
2023-03-06T14:29:02.736Z,8.57
2023-03-06T14:31:33.186Z,7.55
2023-03-06T14:34:15.512Z,8.65
2023-03-06T14:36:43.792Z,7.78
2023-03-06T14:39:18.256Z,7.00
2023-03-06T14:41:44.787Z,8.75
2023-03-06T14:44:22.883Z,8.80
2023-03-06T14:46:51.889Z,8.57
2023-03-06T14:49:20.098Z,9.35
2023-03-06T14:51:49.816Z,9.10
2023-03-06T14:54:18.348Z,9.40
2023-03-06T14:56:48.102Z,9.95
2023-03-06T14:59:18.045Z,9.50
2023-03-06T15:01:48.139Z,7.93
2023-03-06T15:04:30.249Z,9.90
2023-03-06T15:06:57.725Z,9.85
2023-03-06T15:09:31.496Z,9.55
2023-03-06T15:12:06.507Z,9.63
2023-03-06T15:14:34.950Z,8.90
2023-03-06T15:17:21.483Z,9.50
2023-03-06T15:19:50.729Z,7.13
2023-03-06T15:22:27.617Z,8.43
2023-03-06T15:25:05.653Z,9.30
2023-03-06T15:27:32.358Z,8.23
2023-03-06T15:30:22.206Z,8.80
2023-03-06T15:32:48.732Z,8.90
2023-03-06T15:35:24.293Z,8.95
2023-03-06T15:37:51.314Z,24.40
2023-03-06T15:40:20.009Z,66.65
2023-03-06T15:42:46.766Z,21.30
2023-03-06T15:45:34.619Z,10.98
2023-03-06T15:50:29.006Z,9.23
2023-03-06T15:52:55.557Z,12.63
2023-03-06T15:55:24.789Z,11.45
2023-03-06T15:57:57.077Z,12.45
2023-03-06T16:00:29.161Z,9.07
2023-03-06T16:02:57.436Z,9.63
2023-03-06T16:05:25.436Z,9.68
2023-03-06T16:07:52.194Z,9.93
2023-03-06T16:10:27.714Z,9.27
2023-03-06T16:13:01.855Z,10.50
2023-03-06T16:15:30.187Z,8.27
2023-03-06T16:17:57.401Z,13.52
2023-03-06T16:20:26.249Z,16.05
2023-03-06T16:22:52.849Z,12.43
2023-03-06T16:25:20.548Z,13.43
2023-03-06T16:27:51.168Z,15.77
2023-03-06T16:30:19.447Z,8.77
2023-03-06T16:32:46.265Z,10.35
2023-03-06T16:35:13.465Z,16.35
2023-03-06T16:37:41.034Z,13.85
2023-03-06T16:40:29.304Z,14.80
2023-03-06T16:42:56.012Z,8.45
2023-03-06T16:45:23.306Z,9.98
2023-03-06T16:47:50.027Z,9.07
2023-03-06T16:50:31.964Z,8.88
2023-03-06T16:52:59.127Z,8.18
2023-03-06T16:55:26.927Z,8.60
2023-03-06T16:57:54.190Z,6.72
2023-03-06T17:00:21.939Z,8.52
2023-03-06T17:02:49.742Z,10.15
2023-03-06T17:05:16.402Z,8.75
2023-03-06T17:07:43.014Z,5.93
2023-03-06T17:10:13.160Z,9.43
2023-03-06T17:15:06.787Z,9.30
2023-03-06T17:17:33.575Z,10.65
2023-03-06T17:20:00.217Z,9.52
2023-03-06T17:22:27.264Z,9.50
2023-03-06T17:24:54.208Z,6.78
2023-03-06T17:27:22.453Z,7.60
2023-03-06T17:29:49.007Z,8.45
2023-03-06T17:32:15.587Z,7.20
2023-03-06T17:34:42.443Z,6.70
2023-03-06T17:37:08.932Z,7.90
2023-03-06T17:39:37.695Z,7.95
2023-03-06T17:42:05.716Z,8.07
2023-03-06T17:44:33.506Z,7.85
2023-03-06T17:47:00.283Z,7.65
2023-03-06T17:49:26.796Z,9.20
2023-03-06T17:51:54.583Z,8.40
2023-03-06T17:54:21.118Z,8.43
2023-03-06T17:56:47.656Z,6.75
2023-03-06T17:59:14.602Z,8.23
2023-03-06T18:01:41.768Z,9.13
2023-03-06T18:04:08.269Z,9.38
2023-03-06T18:06:34.816Z,9.20
2023-03-06T18:09:01.677Z,7.50
2023-03-06T18:11:28.529Z,15.15
2023-03-06T18:13:55.131Z,8.32
2023-03-06T18:16:24.305Z,10.15
2023-03-06T18:18:53.509Z,7.38
2023-03-06T18:21:20.764Z,8.05
2023-03-06T18:23:47.363Z,9.77
2023-03-06T18:26:19.576Z,10.85
2023-03-06T18:28:48.512Z,8.52
2023-03-06T18:31:19.409Z,9.20
2023-03-06T18:33:48.428Z,9.48
2023-03-06T18:36:15.513Z,8.32
2023-03-06T18:38:42.119Z,7.72
2023-03-06T18:41:08.730Z,9.80
2023-03-06T18:43:36.500Z,6.30
2023-03-06T18:46:03.348Z,7.63
2023-03-06T18:48:29.940Z,9.07
2023-03-06T18:50:56.671Z,6.32
2023-03-06T18:53:23.278Z,7.60
2023-03-06T18:55:51.675Z,8.05
2023-03-06T18:58:18.754Z,7.55
2023-03-06T19:00:45.477Z,8.05
2023-03-06T19:03:12.382Z,7.43
2023-03-06T19:05:40.574Z,7.43
2023-03-06T19:08:07.266Z,6.45
2023-03-06T19:10:38.059Z,6.80
2023-03-06T19:13:05.732Z,6.93
2023-03-06T19:15:32.704Z,7.13
2023-03-06T19:17:59.719Z,6.72
2023-03-06T19:20:26.658Z,7.55
2023-03-06T19:22:53.662Z,9.15
2023-03-06T19:25:20.470Z,7.55
2023-03-06T19:27:47.087Z,5.22
2023-03-06T19:30:14.775Z,7.38
2023-03-06T19:32:45.108Z,6.88
2023-03-06T19:35:12.367Z,5.30
2023-03-06T19:37:38.861Z,6.63
2023-03-06T19:40:06.109Z,7.20
2023-03-06T19:42:32.670Z,6.90
2023-03-06T19:44:59.437Z,7.82
2023-03-06T19:47:26.000Z,8.65
2023-03-06T19:49:53.550Z,7.95
2023-03-06T19:52:20.176Z,9.23
2023-03-06T19:54:46.671Z,6.75
2023-03-06T19:57:13.900Z,8.13
2023-03-06T19:59:40.379Z,8.10
2023-03-06T20:02:07.205Z,8.02
2023-03-06T20:04:34.952Z,8.85
2023-03-06T20:07:01.526Z,7.78
2023-03-06T20:09:28.091Z,6.22
2023-03-06T20:11:54.654Z,7.45
2023-03-06T20:14:21.155Z,6.43
2023-03-06T20:16:47.692Z,7.50
2023-03-06T20:19:14.307Z,9.85
2023-03-06T20:21:40.947Z,9.18
2023-03-06T20:24:10.631Z,8.02
2023-03-06T20:26:37.296Z,6.68
2023-03-06T20:29:03.909Z,8.15
2023-03-06T20:31:30.672Z,8.50
2023-03-06T20:33:59.109Z,8.38
2023-03-06T20:36:34.388Z,7.32
2023-03-06T20:39:04.102Z,6.68
2023-03-06T20:41:31.595Z,9.13
2023-03-06T20:43:59.682Z,8.40
2023-03-06T20:46:26.542Z,9.57
2023-03-06T20:48:53.821Z,10.27
2023-03-06T20:51:28.712Z,9.35
2023-03-06T20:53:55.829Z,7.65
2023-03-06T20:56:25.006Z,9.60
2023-03-06T20:58:52.245Z,9.60
2023-03-06T21:01:22.663Z,7.63
2023-03-06T21:03:49.707Z,7.20
2023-03-06T21:06:17.258Z,8.98
2023-03-06T21:08:43.850Z,9.80
2023-03-06T21:11:10.735Z,9.68
2023-03-06T21:13:37.511Z,8.70
2023-03-06T21:16:06.046Z,10.02
2023-03-06T21:18:33.087Z,9.02
2023-03-06T21:20:59.595Z,8.88
2023-03-06T21:23:26.135Z,5.70
2023-03-06T21:25:52.747Z,7.75
2023-03-06T21:28:19.451Z,9.05
2023-03-06T21:30:45.984Z,9.40
2023-03-06T21:33:13.433Z,8.75
2023-03-06T21:35:41.355Z,7.50
2023-03-06T21:38:08.559Z,8.02
2023-03-06T21:40:35.142Z,7.50
2023-03-06T21:43:01.763Z,7.63
2023-03-06T21:45:28.541Z,7.28
2023-03-06T21:47:55.319Z,7.57
2023-03-06T21:50:22.126Z,6.88
2023-03-06T21:52:48.615Z,8.85
2023-03-06T21:55:15.704Z,7.88
2023-03-06T21:57:42.567Z,7.18
2023-03-06T22:00:10.732Z,6.93
2023-03-06T22:02:37.968Z,6.78
2023-03-06T22:05:05.272Z,8.07
2023-03-06T22:07:35.709Z,8.02
2023-03-06T22:10:02.477Z,5.82
2023-03-06T22:12:29.055Z,5.90
2023-03-06T22:14:55.595Z,7.55
2023-03-06T22:17:22.171Z,7.80
2023-03-06T22:19:49.046Z,6.85
2023-03-06T22:22:15.815Z,7.50
2023-03-06T22:24:42.316Z,6.63
2023-03-06T22:27:08.818Z,7.40
2023-03-06T22:29:35.429Z,5.72
2023-03-06T22:32:02.002Z,8.05
2023-03-06T22:34:28.579Z,7.07
2023-03-06T22:36:55.148Z,7.45
2023-03-06T22:39:21.694Z,8.82
2023-03-06T22:41:48.241Z,5.10
2023-03-06T22:44:16.911Z,5.57
2023-03-06T22:46:43.755Z,5.75
2023-03-06T22:49:11.842Z,6.95
2023-03-06T22:51:38.900Z,7.15
2023-03-06T22:54:06.903Z,6.45
2023-03-06T22:56:34.107Z,6.07
2023-03-06T22:59:01.006Z,7.20
2023-03-06T23:01:30.136Z,5.78
2023-03-06T23:03:59.355Z,6.88
2023-03-06T23:06:34.934Z,4.93
2023-03-06T23:09:07.298Z,7.38
2023-03-06T23:11:34.594Z,6.03
2023-03-06T23:14:01.524Z,6.40
2023-03-06T23:16:27.986Z,6.57
2023-03-06T23:18:54.570Z,8.27
2023-03-06T23:21:22.397Z,6.60
2023-03-06T23:23:50.683Z,6.30
2023-03-06T23:26:18.442Z,6.80
2023-03-06T23:28:45.229Z,4.20
2023-03-06T23:31:15.004Z,4.43
2023-03-06T23:33:41.812Z,5.32
2023-03-06T23:36:14.159Z,6.28
2023-03-06T23:38:40.985Z,7.15
2023-03-06T23:41:10.678Z,5.18
2023-03-06T23:43:37.456Z,6.47
2023-03-06T23:46:04.861Z,4.63
2023-03-06T23:48:31.562Z,5.75
2023-03-06T23:50:58.159Z,7.00
2023-03-06T23:53:25.219Z,5.75
2023-03-06T23:55:52.969Z,5.30
2023-03-06T23:58:19.748Z,6.75
